Nearby METAR Reports


Data Updates Approximately Every Four (4) Hours

METAR is the international standard code format for hourly surface weather observations which is analogous to the SA coding currently used in the US. The acronym roughly translates from French as Aviation Routine Weather Report. SPECI is merely the code name given to METAR formatted products which are issued on a special non-routine basis as dictated by changing meteorological conditions. The SPECI acronym roughly translates as Aviation Selected Special Weather Report.
Source: NOAA-National Centers For Environmental Information.

KSLH - Cheboygan, Michigan, USA
Distance from LHW: W 9mi, 14km
Updated: 02/07/2023 1:35pm
Overcast
Overcast
 Wind from W
Wind: W 16 mph , 26 km/h, Gust: 26 mph , 43 km/h
Temperature: 36°F , 2°C
Wind Chill: 26°F , -3°C
Dew Point: 32°F , 0°C
Humidity: 87%
Barometer: 29.72 inHg , 1006.4 hPa
Clouds: Overcast
Visibility: 10 miles , 16 km
Cloud details: Partly cloudy 1700 ft
Overcast 2500 ft
2023/02/07 18:35 KSLH 071835Z AUTO 27014G23KT 10SM SCT017 OVC025 02/00 A2972 RMK AO2
KMCD - Mackinac Island, Michigan, USA
Distance from LHW: NW 19mi, 31km
Updated: 02/07/2023 1:35pm
Overcast
Overcast
 Wind from W
Wind: W 21 mph , 33 km/h, Gust: 28 mph , 44 km/h
Temperature: 34°F , 1°C
Wind Chill: 22°F , -6°C
Dew Point: 34°F , 1°C
Humidity: 100%
Barometer: 29.73 inHg , 1006.8 hPa
Clouds: Overcast
Visibility: 7 miles , 11 km
Cloud details: Overcast 800 ft
2023/02/07 18:35 KMCD 071835Z AUTO 26018G24KT 7SM OVC008 01/01 A2973 RMK AO2 T00130013
 
KDRM - Drummond Is, Michigan, USA
Distance from LHW: NE 36mi, 59km
Updated: 02/07/2023 1:35pm
Overcast
Overcast
 Wind from W
Wind: W 6 mph , 9 km/h, Gust: 16 mph , 26 km/h
Temperature: 37°F , 3°C
Wind Chill: 32°F , 0°C
Dew Point: 32°F , 0°C
Humidity: 81%
Barometer: 29.68 inHg , 1005.1 hPa
Clouds: Overcast
Visibility: 10 miles , 16 km
Cloud details: Overcast 1300 ft
2023/02/07 18:35 KDRM 071835Z AUTO 28005G14KT 10SM OVC013 03/00 A2968 RMK AO2 T00300001
KPZQ - Rogers City, Michigan, USA
Distance from LHW: SE 31mi, 50km
Updated: 02/07/2023 1:35pm
Overcast
Overcast
 Wind from W
Wind: W 12 mph , 19 km/h, Gust: 21 mph , 33 km/h
Temperature: 36°F , 2°C
Wind Chill: 28°F , -2°C
Dew Point: 34°F , 1°C
Humidity: 93%
Barometer: 29.73 inHg , 1006.8 hPa
Clouds: Overcast
Visibility: 7 miles , 11 km
Cloud details: Overcast 1400 ft
2023/02/07 18:35 KPZQ 071835Z AUTO 28010G18KT 7SM OVC014 02/01 A2973 RMK AO2 T00230005
 
CYAM - Sault Ste Marie, Ontario, Canada
Distance from LHW: N 56mi, 90km
Updated: 02/07/2023 1:25pm
Mostly cloudy
Mostly cloudy
 Wind from W
Wind: W 21 mph , 33 km/h, Gust: 28 mph , 44 km/h
Temperature: 36°F , 2°C
Wind Chill: 25°F , -4°C
Dew Point: 32°F , 0°C
Humidity: 87%
Barometer: 29.67 inHg , 1004.7 hPa
Clouds: Mostly cloudy
Visibility: 12 miles , 19 km
Cloud details: Partly cloudy 1600 ft
Mostly cloudy 2400 ft
Mostly cloudy 4200 ft
2023/02/07 18:25 CYAM 071825Z 28018G24KT 12SM SCT016 BKN024 BKN042 02/M00 A2967 RMK SC3SC2SC2 CU EMBD SLP058
KANJ - Sault Ste Marie, Michigan, USA
Distance from LHW: N 56mi, 89km
Updated: 02/07/2023 12:55pm
Overcast
Overcast
 Wind from W
Wind: W 15 mph , 24 km/h, Gust: 26 mph , 43 km/h
Temperature: 36°F , 2°C
Wind Chill: 27°F , -3°C
Dew Point: 32°F , 0°C
Humidity: 87%
Barometer: 29.64 inHg , 1003.7 hPa
Clouds: Overcast
Visibility: 8 miles , 13 km
Cloud details: Partly cloudy 1500 ft
Mostly cloudy 1900 ft
Overcast 2500 ft
2023/02/07 17:55 KANJ 071755Z AUTO 28013G23KT 8SM SCT015 BKN019 OVC025 02/00 A2964 RMK AO2 PK WND 26026/1737 SLP043 60018 T00220000 10022 21011 53037
 
KGLR - Gaylord, Michigan, USA
Distance from LHW: SSW 48mi, 77km
Updated: 02/07/2023 1:09pm
Mist, Overcast
Mist, Overcast
 Wind from W
Wind: W 13 mph , 20 km/h, Gust: 24 mph , 39 km/h
Temperature: 36°F , 2°C
Wind Chill: 27°F , -3°C
Dew Point: 32°F , 0°C
Humidity: 87%
Barometer: 29.73 inHg , 1006.8 hPa
Summary: Mist
Clouds: Overcast
Visibility: 3 miles , 5 km
Cloud details: Overcast 1000 ft
2023/02/07 18:09 KGLR 071809Z AUTO 27011G21KT 3SM BR OVC010 02/00 A2973 RMK AO2 PK WND 26026/1755 CIG 007V013 T00220000
KPLN - Pellston, Michigan, USA
Distance from LHW: WSW 24mi, 38km
Updated: 02/07/2023 1:04pm
Overcast
Overcast
 Wind from W
Wind: W 14 mph , 22 km/h, Gust: 26 mph , 43 km/h
Temperature: 37°F , 3°C
Wind Chill: 28°F , -2°C
Dew Point: 32°F , 0°C
Humidity: 81%
Barometer: 29.74 inHg , 1007.1 hPa
Clouds: Overcast
Visibility: 10 miles , 16 km
Cloud details: Mostly cloudy 1600 ft
Overcast 2900 ft
2023/02/07 18:04 KPLN 071804Z AUTO 28012G23KT 10SM BKN016 OVC029 03/00 A2974 RMK AO2 T00280000